createdAt,value
2018-10-11T00:02:38.961Z,6.67
2018-10-11T00:07:43.359Z,5.30
2018-10-11T00:12:48.460Z,5.12
2018-10-11T00:17:53.087Z,5.17
2018-10-11T00:22:57.458Z,6.17
2018-10-11T00:28:02.036Z,5.67
2018-10-11T00:33:07.066Z,6.50
2018-10-11T00:38:11.862Z,5.70
2018-10-11T00:43:16.308Z,3.85
2018-10-11T00:48:20.978Z,6.12
2018-10-11T00:53:25.385Z,5.40
2018-10-11T00:58:29.939Z,5.90
2018-10-11T01:03:34.456Z,6.47
2018-10-11T01:08:39.017Z,5.60
2018-10-11T01:13:43.612Z,4.75
2018-10-11T01:18:47.833Z,6.37
2018-10-11T01:23:52.331Z,5.35
2018-10-11T01:28:56.683Z,5.30
2018-10-11T01:34:01.149Z,3.72
2018-10-11T01:39:06.137Z,4.12
2018-10-11T01:44:10.863Z,4.28
2018-10-11T01:49:15.638Z,5.47
2018-10-11T01:54:20.181Z,6.10
2018-10-11T01:59:24.647Z,4.72
2018-10-11T02:04:29.827Z,5.10
2018-10-11T02:09:34.497Z,5.30
2018-10-11T02:14:38.986Z,4.62
2018-10-11T02:19:43.344Z,4.70
2018-10-11T02:24:48.400Z,4.70
2018-10-11T02:29:52.912Z,3.55
2018-10-11T02:34:58.213Z,3.95
2018-10-11T02:40:03.401Z,4.62
2018-10-11T02:45:09.741Z,5.12
2018-10-11T02:50:14.297Z,4.42
2018-10-11T02:55:26.148Z,3.70
2018-10-11T03:00:31.001Z,5.20
2018-10-11T03:05:38.673Z,4.97
2018-10-11T03:10:43.349Z,4.70
2018-10-11T03:15:49.034Z,8.70
2018-10-11T03:20:53.562Z,5.87
2018-10-11T03:25:58.852Z,5.42
2018-10-11T03:31:04.012Z,6.03
2018-10-11T03:36:08.333Z,6.60
2018-10-11T03:41:12.681Z,6.22
2018-10-11T03:46:17.376Z,6.58
2018-10-11T03:51:22.204Z,6.40
2018-10-11T03:56:26.759Z,8.30
2018-10-11T04:01:31.074Z,8.35
2018-10-11T04:06:35.623Z,5.90
2018-10-11T04:11:40.043Z,6.42
2018-10-11T04:16:44.337Z,7.35
2018-10-11T04:21:49.846Z,5.95
2018-10-11T04:26:54.345Z,5.83
2018-10-11T04:31:58.664Z,5.37
2018-10-11T04:37:03.003Z,5.53
2018-10-11T04:42:08.025Z,5.35
2018-10-11T04:47:12.997Z,5.33
2018-10-11T04:52:17.382Z,4.87
2018-10-11T04:57:21.901Z,5.95
2018-10-11T05:02:26.388Z,5.60
2018-10-11T05:07:30.712Z,6.58
2018-10-11T05:12:35.341Z,17.57
2018-10-11T05:17:39.950Z,7.92
2018-10-11T05:22:44.244Z,9.20
2018-10-11T05:27:49.024Z,10.93
2018-10-11T05:32:53.673Z,7.08
2018-10-11T05:37:58.510Z,5.87
2018-10-11T05:43:03.254Z,10.68
2018-10-11T05:48:07.634Z,4.83
2018-10-11T05:53:12.013Z,5.72
2018-10-11T05:58:16.816Z,6.25
2018-10-11T06:03:22.213Z,5.45
2018-10-11T06:08:26.598Z,7.17
2018-10-11T06:13:31.079Z,5.97
2018-10-11T06:18:35.653Z,6.22
2018-10-11T06:23:40.743Z,6.58
2018-10-11T06:28:45.861Z,6.15
2018-10-11T06:33:50.388Z,6.22
2018-10-11T06:38:56.536Z,6.55
2018-10-11T06:44:00.840Z,5.37
2018-10-11T06:49:05.748Z,4.40
2018-10-11T06:54:11.510Z,4.35
2018-10-11T06:59:15.963Z,5.75
2018-10-11T07:04:20.142Z,5.25
2018-10-11T07:09:25.332Z,3.95
2018-10-11T07:14:30.287Z,5.70
2018-10-11T07:19:34.541Z,5.22
2018-10-11T07:24:39.738Z,4.28
2018-10-11T07:29:44.714Z,4.37
2018-10-11T07:34:49.284Z,4.00
2018-10-11T07:39:53.785Z,5.03
2018-10-11T07:44:58.637Z,5.40
2018-10-11T07:50:05.296Z,4.70
2018-10-11T07:55:10.253Z,7.45
2018-10-11T08:00:14.598Z,8.30
2018-10-11T08:05:18.961Z,6.47
2018-10-11T08:10:23.371Z,6.75
2018-10-11T08:15:28.143Z,8.03
2018-10-11T08:20:32.538Z,6.12
2018-10-11T08:25:38.114Z,8.28
2018-10-11T08:30:43.338Z,9.68
2018-10-11T08:35:47.822Z,8.23
2018-10-11T08:40:52.754Z,7.60
2018-10-11T08:45:56.935Z,8.50
2018-10-11T08:51:01.297Z,11.05
2018-10-11T08:56:05.840Z,11.15
2018-10-11T09:01:10.072Z,6.62
2018-10-11T09:06:14.269Z,8.28
2018-10-11T09:11:30.319Z,8.38
2018-10-11T09:16:35.336Z,7.70
2018-10-11T09:21:39.541Z,6.65
2018-10-11T09:26:47.756Z,6.70
2018-10-11T09:31:52.132Z,5.53
2018-10-11T09:36:56.516Z,4.62
2018-10-11T09:42:01.670Z,4.67
2018-10-11T09:47:06.375Z,7.05
2018-10-11T09:52:11.394Z,7.65
2018-10-11T09:57:22.033Z,6.47
2018-10-11T10:02:27.034Z,6.87
2018-10-11T10:07:38.755Z,11.25
2018-10-11T10:12:43.671Z,9.25
2018-10-11T10:17:48.397Z,9.65
2018-10-11T10:22:54.074Z,8.20
2018-10-11T10:34:09.320Z,11.43
2018-10-11T10:39:13.739Z,6.70
2018-10-11T10:44:18.128Z,6.60
2018-10-11T10:49:22.476Z,6.78
2018-10-11T10:54:29.009Z,8.10
2018-10-11T10:59:33.191Z,5.97
2018-10-11T11:04:37.469Z,4.83
2018-10-11T11:09:44.742Z,6.78
2018-10-11T11:14:49.829Z,7.05
2018-10-11T11:19:54.161Z,6.45
2018-10-11T11:24:58.988Z,7.08
2018-10-11T11:30:03.174Z,8.65
2018-10-11T11:35:07.778Z,7.30
2018-10-11T11:40:16.111Z,6.10
2018-10-11T11:45:20.266Z,8.28
2018-10-11T11:50:26.346Z,6.42
2018-10-11T11:55:30.642Z,8.68
2018-10-11T12:00:34.891Z,8.70
2018-10-11T12:05:39.273Z,8.00
2018-10-11T12:10:43.569Z,10.90
2018-10-11T12:15:47.923Z,9.60
2018-10-11T12:20:53.227Z,11.12
2018-10-11T12:25:57.742Z,11.83
2018-10-11T12:31:02.242Z,15.55
2018-10-11T12:36:07.512Z,16.10
2018-10-11T12:41:12.039Z,16.55
2018-10-11T12:46:16.750Z,13.68
2018-10-11T12:51:21.178Z,15.98
2018-10-11T12:56:25.687Z,16.02
2018-10-11T13:01:30.341Z,16.25
2018-10-11T13:06:34.779Z,15.78
2018-10-11T13:11:39.494Z,16.27
2018-10-11T13:16:43.867Z,16.42
2018-10-11T13:21:48.499Z,16.77
2018-10-11T13:26:53.025Z,16.00
2018-10-11T13:31:57.556Z,14.60
2018-10-11T13:37:02.168Z,16.80
2018-10-11T13:42:06.810Z,19.90
2018-10-11T13:47:14.663Z,19.95
2018-10-11T13:52:22.350Z,13.98
2018-10-11T13:57:28.386Z,16.20
2018-10-11T14:02:28.963Z,15.60
2018-10-11T14:07:33.519Z,15.48
2018-10-11T14:12:37.895Z,16.82
2018-10-11T14:17:42.370Z,20.30
2018-10-11T14:22:46.881Z,18.12
2018-10-11T14:27:53.064Z,16.85
2018-10-11T14:32:57.469Z,17.65
2018-10-11T14:38:01.830Z,18.77
2018-10-11T14:43:07.055Z,18.70
2018-10-11T14:48:11.953Z,18.67
2018-10-11T14:53:16.492Z,17.85
2018-10-11T14:58:20.810Z,17.85
2018-10-11T15:03:25.342Z,15.72
2018-10-11T15:08:30.292Z,16.02
2018-10-11T15:13:35.019Z,20.48
2018-10-11T15:18:39.618Z,20.45
2018-10-11T15:23:44.258Z,19.67
2018-10-11T15:28:51.342Z,21.02
2018-10-11T15:33:55.592Z,21.60
2018-10-11T15:38:59.929Z,21.25
2018-10-11T15:44:04.370Z,20.82
2018-10-11T15:49:09.335Z,20.97
2018-10-11T15:54:14.650Z,22.98
2018-10-11T15:59:20.111Z,20.08
2018-10-11T16:04:25.059Z,20.17
2018-10-11T16:09:29.682Z,16.00
2018-10-11T16:14:34.351Z,14.70
2018-10-11T16:19:39.589Z,13.05
2018-10-11T16:24:44.230Z,15.90
2018-10-11T16:29:48.902Z,9.90
2018-10-11T16:34:53.365Z,13.70
2018-10-11T16:39:57.673Z,11.90
2018-10-11T16:45:02.536Z,15.63
2018-10-11T16:50:07.462Z,13.13
2018-10-11T16:55:11.902Z,11.00
2018-10-11T17:00:16.533Z,14.55
2018-10-11T17:05:21.265Z,15.10
2018-10-11T17:10:26.022Z,12.98
2018-10-11T17:15:30.758Z,11.40
2018-10-11T17:20:35.622Z,11.65
2018-10-11T17:25:41.425Z,15.63
2018-10-11T17:30:46.242Z,15.53
2018-10-11T17:35:52.745Z,13.62
2018-10-11T17:40:58.429Z,11.22
2018-10-11T17:46:03.322Z,10.65
2018-10-11T17:51:08.117Z,12.80
2018-10-11T17:56:13.507Z,13.60
2018-10-11T18:01:18.515Z,17.27
2018-10-11T18:06:23.308Z,14.80
2018-10-11T18:11:27.927Z,15.50
2018-10-11T18:16:33.104Z,13.75
2018-10-11T18:21:37.768Z,9.13
2018-10-11T18:26:42.438Z,12.37
2018-10-11T18:38:09.207Z,16.40
2018-10-11T18:43:18.953Z,12.95
2018-10-11T18:48:29.457Z,17.45
2018-10-11T18:53:38.136Z,15.28
2018-10-11T18:58:46.251Z,15.23
2018-10-11T19:03:52.202Z,15.50
2018-10-11T19:09:02.309Z,13.65
2018-10-11T19:14:10.439Z,10.45
2018-10-11T19:19:17.545Z,10.80
2018-10-11T19:24:28.363Z,13.95
2018-10-11T19:29:35.939Z,16.85
2018-10-11T19:34:42.571Z,18.57
2018-10-11T19:39:47.514Z,16.87
2018-10-11T19:44:52.365Z,15.10
2018-10-11T19:49:57.289Z,13.43
2018-10-11T19:55:04.367Z,12.13
2018-10-11T20:00:12.294Z,10.88
2018-10-11T20:05:17.462Z,15.10
2018-10-11T20:10:22.721Z,11.25
2018-10-11T20:15:27.562Z,10.32
2018-10-11T20:20:32.585Z,16.82
2018-10-11T20:25:38.117Z,11.78
2018-10-11T20:30:42.973Z,9.45
2018-10-11T20:35:47.802Z,11.78
2018-10-11T20:40:52.475Z,11.65
2018-10-11T20:45:57.526Z,9.58
2018-10-11T20:51:02.302Z,10.48
2018-10-11T20:56:07.400Z,11.78
2018-10-11T21:01:12.261Z,12.75
2018-10-11T21:06:16.904Z,12.35
2018-10-11T21:11:21.650Z,15.72
2018-10-11T21:16:26.380Z,11.88
2018-10-11T21:21:31.809Z,11.68
2018-10-11T21:26:36.691Z,11.05
2018-10-11T21:31:41.871Z,11.95
2018-10-11T21:36:46.342Z,14.05
2018-10-11T21:41:50.787Z,13.80
2018-10-11T21:46:55.314Z,12.98
2018-10-11T21:52:00.000Z,13.60
2018-10-11T21:57:04.699Z,12.65
2018-10-11T22:02:09.904Z,15.05
2018-10-11T22:07:15.063Z,14.13
2018-10-11T22:12:19.473Z,17.30
2018-10-11T22:17:24.519Z,17.95
2018-10-11T22:22:29.684Z,15.32
2018-10-11T22:27:34.174Z,16.65
2018-10-11T22:32:38.821Z,15.53
2018-10-11T22:37:43.283Z,14.55
2018-10-11T22:42:47.908Z,18.05
2018-10-11T22:47:52.749Z,16.45
2018-10-11T22:52:57.403Z,14.80
2018-10-11T22:58:02.434Z,15.32
2018-10-11T23:03:07.052Z,13.48
2018-10-11T23:08:12.385Z,13.75
2018-10-11T23:13:16.897Z,20.77
2018-10-11T23:18:21.757Z,15.32
2018-10-11T23:23:26.297Z,15.03
2018-10-11T23:28:31.781Z,12.00
2018-10-11T23:33:36.321Z,12.47
2018-10-11T23:38:40.841Z,15.20
2018-10-11T23:43:45.340Z,15.25
2018-10-11T23:48:50.416Z,13.15
2018-10-11T23:53:55.561Z,15.78
2018-10-11T23:59:01.179Z,13.40
